地図

経路データ

SID SEASON NUMBER BASIN SUBBASIN NAME ISO_TIME NATURE LAT LON WMO_WIND WMO_PRES WMO_AGENCY TRACK_TYPE DIST2LAND LANDFALL IFLAG USA_AGENCY USA_ATCF_ID USA_LAT USA_LON USA_RECORD USA_STATUS USA_WIND USA_PRES USA_SSHS USA_R34_NE USA_R34_SE USA_R34_SW USA_R34_NW USA_R50_NE USA_R50_SE USA_R50_SW USA_R50_NW USA_R64_NE USA_R64_SE USA_R64_SW USA_R64_NW USA_POCI USA_ROCI USA_RMW USA_EYE TOKYO_LAT TOKYO_LON TOKYO_GRADE TOKYO_WIND TOKYO_PRES TOKYO_R50_DIR TOKYO_R50_LONG TOKYO_R50_SHORT TOKYO_R30_DIR TOKYO_R30_LONG TOKYO_R30_SHORT TOKYO_LAND CMA_LAT CMA_LON CMA_CAT CMA_WIND CMA_PRES HKO_LAT HKO_LON HKO_CAT HKO_WIND HKO_PRES NEWDELHI_LAT NEWDELHI_LON NEWDELHI_GRADE NEWDELHI_WIND NEWDELHI_PRES NEWDELHI_CI NEWDELHI_DP NEWDELHI_POCI REUNION_LAT REUNION_LON REUNION_TYPE REUNION_WIND REUNION_PRES REUNION_TNUM REUNION_CI REUNION_RMW REUNION_R34_NE REUNION_R34_SE REUNION_R34_SW REUNION_R34_NW REUNION_R50_NE REUNION_R50_SE REUNION_R50_SW REUNION_R50_NW REUNION_R64_NE REUNION_R64_SE REUNION_R64_SW REUNION_R64_NW BOM_LAT BOM_LON BOM_TYPE BOM_WIND BOM_PRES BOM_TNUM BOM_CI BOM_RMW BOM_R34_NE BOM_R34_SE BOM_R34_SW BOM_R34_NW BOM_R50_NE BOM_R50_SE BOM_R50_SW BOM_R50_NW BOM_R64_NE BOM_R64_SE BOM_R64_SW BOM_R64_NW BOM_ROCI BOM_POCI BOM_EYE BOM_POS_METHOD BOM_PRES_METHOD NADI_LAT NADI_LON NADI_CAT NADI_WIND NADI_PRES WELLINGTON_LAT WELLINGTON_LON WELLINGTON_WIND WELLINGTON_PRES DS824_LAT DS824_LON DS824_STAGE DS824_WIND DS824_PRES TD9636_LAT TD9636_LON TD9636_STAGE TD9636_WIND TD9636_PRES TD9635_LAT TD9635_LON TD9635_WIND TD9635_PRES TD9635_ROCI NEUMANN_LAT NEUMANN_LON NEUMANN_CLASS NEUMANN_WIND NEUMANN_PRES MLC_LAT MLC_LON MLC_CLASS MLC_WIND MLC_PRES USA_GUST BOM_GUST BOM_GUST_PER REUNION_GUST REUNION_GUST_PER USA_SEAHGT USA_SEARAD_NE USA_SEARAD_SE USA_SEARAD_SW USA_SEARAD_NW STORM_SPEED STORM_DIR
2018129N15153 2018 22 WP MM NOT_NAMED 2018-05-09 00:00:00 NR 14.5000 153.000 main 1940 1939 O_____________ jtwc_wp WP042018 14.5000 153.000 DB 20 1007 -3 1011 160 65 2 290
2018129N15153 2018 22 WP MM NOT_NAMED 2018-05-09 03:00:00 NR 14.5275 152.915 main 1939 1939 P_____________ WP042018 14.5275 152.915 DB 20 1007 -3 1011 160 65 1 317
2018129N15153 2018 22 WP MM NOT_NAMED 2018-05-09 06:00:00 NR 14.6000 152.900 main 1950 1950 O_____________ jtwc_wp WP042018 14.6000 152.900 DB 20 1007 -3 1011 160 65 2 21
2018129N15153 2018 22 WP MM NOT_NAMED 2018-05-09 09:00:00 NR 14.7425 152.992 main 1963 1963 P_____________ WP042018 14.7425 152.992 DB 20 1007 -3 1011 160 65 4 33
2018129N15153 2018 22 WP MM NOT_NAMED 2018-05-09 12:00:00 NR 14.9000 153.100 main 1986 1986 O_____________ jtwc_wp WP042018 14.9000 153.100 DB 20 1007 -3 1011 160 65 3 24
2018129N15153 2018 22 WP MM NOT_NAMED 2018-05-09 15:00:00 NR 15.0075 153.115 main 1997 1997 P_____________ WP042018 15.0075 153.115 DB 20 1007 -3 1011 160 65 2 8
2018129N15153 2018 22 WP MM NOT_NAMED 2018-05-09 18:00:00 NR 15.1000 153.100 main 2008 2008 O_____________ jtwc_wp WP042018 15.1000 153.100 DB 20 1007 -3 1011 160 65 1 339
2018129N15153 2018 22 WP MM NOT_NAMED 2018-05-09 21:00:00 NR 15.0977 153.080 main 2008 2008 P_____________ WP042018 15.0977 153.080 DB 20 1007 -3 1011 160 65 2 8
2018129N15153 2018 22 WP MM NOT_NAMED 2018-05-10 00:00:00 NR 15.3000 153.100 main 2030 2030 O_____________ jtwc_wp WP042018 15.3000 153.100 DB 20 1007 -3 1011 160 65 8 8
2018129N15153 2018 22 WP MM NOT_NAMED 2018-05-10 03:00:00 NR 15.9000 153.200 main 2098 2098 O_____________ jtwc_wp WP042018 15.9000 153.200 DB 20 1007 -3 1011 160 65 9 348
2018129N15153 2018 22 WP MM NOT_NAMED 2018-05-10 06:00:00 NR 16.2000 152.900 main 2128 2128 O_____________ jtwc_wp WP042018 16.2000 152.900 DB 20 1007 -3 1011 160 65 7 315
2018129N15153 2018 22 WP MM NOT_NAMED 2018-05-10 09:00:00 NR 16.3874 152.693 main 2148 2147 P_____________ WP042018 16.3874 152.693 DB 20 1006 -3 1011 160 65 5 308
2018129N15153 2018 22 WP MM NOT_NAMED 2018-05-10 12:00:00 NR 16.5000 152.500 main 2157 2154 O_____________ jtwc_wp WP042018 16.5000 152.500 DB 20 1006 -3 1011 160 65 5 296
2018129N15153 2018 22 WP MM NOT_NAMED 2018-05-10 15:00:00 NR 16.6150 152.215 main 2160 2157 P_____________ WP042018 16.6150 152.215 DB 22 1006 -3 1011 140 65 6 289
2018129N15153 2018 22 WP MM NOT_NAMED 2018-05-10 18:00:00 TS 16.7000 151.900 main 2163 2155 O_____________ jtwc_wp WP042018 16.7000 151.900 TD 25 1006 -1 1011 120 65 6 283
2018129N15153 2018 22 WP MM NOT_NAMED 2018-05-10 21:00:00 TS 16.7500 151.600 main 2155 2155 P_____________ WP042018 16.7500 151.600 TD 27 1005 -1 1010 120 52 6 282
2018129N15153 2018 22 WP MM NOT_NAMED 2018-05-11 00:00:00 TS 16.8200 151.300 main 2160 2157 O_O___________ jtwc_wp WP042018 16.8000 151.300 TD 30 1005 -1 1010 120 40 16.9000 151.300 1 25 1004 6 284
2018129N15153 2018 22 WP MM NOT_NAMED 2018-05-11 03:00:00 TS 16.8925 150.984 main 2164 2160 P_P___________ WP042018 16.8700 151.000 TD 30 1005 -1 1009 135 40 16.9376 150.953 1 25 1004 6 286
2018129N15153 2018 22 WP MM NOT_NAMED 2018-05-11 06:00:00 TS 17.0000 150.657 main 2169 2166 O_O___________ jtwc_wp WP042018 17.0000 150.700 TD 30 1005 -1 1009 150 40 17.0000 150.600 1 25 1004 7 293
2018129N15153 2018 22 WP MM NOT_NAMED 2018-05-11 09:00:00 TS 17.1662 150.321 main 2185 2183 P_P___________ WP042018 17.2200 150.400 TD 30 1005 -1 1009 150 40 17.1125 150.242 1 25 1004 7 303
2018129N15153 2018 22 WP MM NOT_NAMED 2018-05-11 12:00:00 TS 17.4000 150.000 main 2195 2151 O_O___________ jtwc_wp WP042018 17.5000 150.100 TD 30 1005 -1 1009 150 40 17.3000 149.900 1 25 1004 8 311
2018129N15153 2018 22 WP MM NOT_NAMED 2018-05-11 15:00:00 TS 17.6887 149.689 main 2151 2107 P_P___________ WP042018 17.8075 149.800 TD 30 1005 -1 1008 130 40 17.5700 149.578 1 25 1004 8 316
2018129N15153 2018 22 WP MM NOT_NAMED 2018-05-11 18:00:00 TS 18.0000 149.400 main 2107 2068 O_O___________ jtwc_wp WP042018 18.1000 149.500 TD 30 1005 -1 1008 110 40 17.9000 149.300 1 25 1004 8 320
2018129N15153 2018 22 WP MM NOT_NAMED 2018-05-11 21:00:00 TS 18.2936 149.157 main 2068 2035 P_P___________ WP042018 18.3299 149.207 TD 30 1005 -1 1009 135 40 18.2573 149.107 1 27 1003 7 319
2018129N15153 2018 22 WP MM NOT_NAMED 2018-05-12 00:00:00 TS 18.5500 148.900 main 2025 1991 O_O___________ jtwc_wp WP042018 18.5000 148.900 TD 30 1005 -1 1010 160 40 18.6000 148.900 1 29 1002 7 310
2018129N15153 2018 22 WP MM NOT_NAMED 2018-05-12 03:00:00 TS 18.7625 148.565 main 1991 1964 P_P___________ WP042018 18.6225 148.557 TD 30 1005 -1 1009 157 40 18.9025 148.573 1 29 1002 8 298
2018129N15153 2018 22 WP MM NOT_NAMED 2018-05-12 06:00:00 TS 18.9000 148.200 main 1964 1952 O_O___________ jtwc_wp WP042018 18.7000 148.200 TD 30 1005 -1 1009 155 40 19.1000 148.200 1 29 1002 7 284
2018129N15153 2018 22 WP MM NOT_NAMED 2018-05-12 09:00:00 TS 18.9363 147.835 main 1948 1937 P_P___________ WP042018 18.7500 147.835 TD 32 1004 -1 1009 150 40 19.1225 147.835 1 29 1002 7 274
2018129N15153 2018 22 WP MM NOT_NAMED 2018-05-12 12:00:00 TS 18.9500 147.500 main 1926 1915 O_O___________ jtwc_wp WP042018 18.8000 147.500 TS 35 1004 0 140 60 30 110 1010 145 40 19.1000 147.500 1 29 1002 6 279
2018129N15153 2018 22 WP MM NOT_NAMED 2018-05-12 15:00:00 TS 19.0311 147.235 main 1915 1897 P_P___________ WP042018 18.8774 147.235 TS 35 1004 0 140 70 35 110 1010 145 40 19.1849 147.235 1 29 1002 5 293
2018129N15153 2018 22 WP MM NOT_NAMED 2018-05-12 18:00:00 TS 19.1500 147.000 main 1887 1869 O_O___________ jtwc_wp WP042018 19.0000 147.000 TS 35 1004 0 140 80 40 110 1010 145 40 19.3000 147.000 1 29 1002 5 298
2018129N15153 2018 22 WP MM NOT_NAMED 2018-05-12 21:00:00 TS 19.2699 146.769 main 1869 1848 P_P___________ WP042018 19.1624 146.765 TS 35 1004 0 125 70 30 100 1010 150 40 19.3774 146.772 1 29 1002 6 303
2018129N15153 2018 22 WP MM NOT_NAMED 2018-05-13 00:00:00 TS 19.4500 146.500 main 1837 1806 O_O___________ jtwc_wp WP042018 19.4000 146.500 TS 35 1004 0 110 60 20 90 1010 155 40 19.5000 146.500 1 29 1002 8 309
2018129N15153 2018 22 WP MM NOT_NAMED 2018-05-13 03:00:00 TS 19.7500 146.144 main 1792 1761 P_P___________ WP042018 19.7575 146.173 TS 32 1004 -1 1009 150 40 19.7426 146.115 1 29 1002 9 310
2018129N15153 2018 22 WP MM NOT_NAMED 2018-05-13 06:00:00 TS 20.0500 145.750 main 1750 1727 O_O___________ jtwc_wp WP042018 20.1000 145.800 TD 30 1005 -1 1009 145 40 20.0000 145.700 1 29 1002 9 302
2018129N15153 2018 22 WP MM NOT_NAMED 2018-05-13 09:00:00 TS 20.2113 145.356 main 1727 1704 P_P___________ WP042018 20.2651 145.385 TD 30 1005 -1 1009 145 40 20.1575 145.327 1 29 1002 8 293
2018129N15153 2018 22 WP MM NOT_NAMED 2018-05-13 12:00:00 TS 20.3500 145.000 main 1694 1675 O_O___________ jtwc_wp WP042018 20.4000 145.000 TD 30 1006 -1 1010 145 40 20.3000 145.000 1 29 1002 7 299
2018129N15153 2018 22 WP MM NOT_NAMED 2018-05-13 15:00:00 TS 20.5487 144.701 main 1675 1637 P_P___________ WP042018 20.6349 144.698 TD 27 1007 -1 1010 142 45 20.4625 144.705 1 27 1003 7 314
2018129N15153 2018 22 WP MM NOT_NAMED 2018-05-13 18:00:00 TS 20.8000 144.500 main 1637 1602 O_O___________ jtwc_wp WP042018 20.9000 144.500 TD 25 1008 -1 1010 140 50 20.7000 144.500 1 25 1004 6 334
2018129N15153 2018 22 WP MM NOT_NAMED 2018-05-13 21:00:00 TS 21.0912 144.424 main 1602 1569 P_P___________ WP042018 21.1199 144.427 TD 25 1008 -1 1010 135 50 21.0624 144.420 1 25 1004 7 351
2018129N15153 2018 22 WP MM NOT_NAMED 2018-05-14 00:00:00 TS 21.4500 144.400 main 1558 1513 O_O___________ jtwc_wp WP042018 21.4000 144.400 TD 25 1008 -1 1010 130 50 21.5000 144.400 1 25 1004 8 353
2018129N15153 2018 22 WP MM NOT_NAMED 2018-05-14 03:00:00 TS 21.8813 144.318 main 1513 1467 P_P___________ WP042018 21.8350 144.300 TD 22 1008 -1 1009 130 50 21.9275 144.335 1 25 1004 9 351
2018129N15153 2018 22 WP MM NOT_NAMED 2018-05-14 06:00:00 TS 22.3429 144.243 main 1467 1413 O_O___________ jtwc_wp WP042018 22.3000 144.200 DB 20 1008 -3 1009 130 50 22.4000 144.300 1 25 1004 9 351
2018129N15153 2018 22 WP MM NOT_NAMED 2018-05-14 09:00:00 TS 22.7741 144.160 main 1413 1378 P_P___________ WP042018 22.6948 144.075 DB 20 1008 -3 1010 142 60 22.9325 144.330 1 25 1004 8 355
2018129N15153 2018 22 WP MM NOT_NAMED 2018-05-14 12:00:00 TS 23.1250 144.175 main 1381 1370 O_O___________ jtwc_wp WP042018 23.0000 144.100 DB 20 1009 -3 1011 155 70 23.5000 144.400 1 25 1004 5 29
2018129N15153 2018 22 WP MM NOT_NAMED 2018-05-14 15:00:00 NR 23.1855 144.412 main 1376 1375 P_____________ WP042018 23.1855 144.412 DB 20 1009 -3 1010 172 80 1 7 75
2018129N15153 2018 22 WP MM NOT_NAMED 2018-05-14 18:00:00 NR 23.3000 144.900 main 1382 O_____________ jtwc_wp WP042018 23.3000 144.900 DB 20 1009 -3 1010 190 90 9 76

デジタル台風データ・検索

IBTrACS Databaseについて

本データベースは、米国NOAAが公開する1842年以降の世界の熱帯低気圧のベストトラックデータアーカイブInternational Best Track Archive for Climate Stewardship (IBTrACS)を、ウェブで閲覧しやすい形式に変換したものです。

最終更新日:2021-11-26